LFKJLFKF

Guest
Details From LFKJ - Napoleon Bonaparte
To LFKF - Figari Sud Corse
Flight Number -
Tags generated
Created
Modified
Stats Distance 31 nm / 57 km
Max Altitude 3,200 ft / 975 m
Waypoints 3
Social Downloads 1
Likes 0
Share VATSIM

Download

Looking for another format? Having issues loading an existing format? Contact us
Advertisement - Login to hide

Notes

Basic altitude profile: - Ascent Rate: 3000ft/min - Ascent Speed: 250kts - Cruise Altitude: 35000ft - Cruise Speed: 420kts - Descent Rate: 1500ft/min - Descent Speed: 250kts Options: - Use NATs: yes - Use PACOTS: yes - Use low airways: yes - Use high airways: yes

Route

LFKJ AJO LFKF

ID Type Via Altitude (ft/m) Position (lat/lon) Dist (leg/tot) Name
O LFKJ APT - 0 / 0 41.92289 / 8.79959 - / 0 nm Napoleon Bonaparte
AJO VOR - 3,200 / 975 41.77053 / 8.77467 9 / 9 nm AJACCIO VOR-DME
O LFKF APT - 0 / 0 41.50206 / 9.09696 21 / 30 nm Figari Sud Corse

Altitude Profile

Advertisement - Login to hide

LFKJ

Details ICAO LFKJ (AJA)
Name Napoleon Bonaparte
Region France
Timezone Europe/Paris (UTC+2.0)
Stats Elevation 19 ft / 6 m (AMSL)
Location 41.921700° 8.801090°
Runways 1
Magnetic Variation 2.403° E

METAR

LFKJ 201030Z AUTO 23007KT 170V260 9999 ///CB 29/22 Q1014 NOSIG

Decode

TAF

TAF LFKJ 200800Z 2009/2109 23010KT 9999 FEW030 TEMPO 2010/2015 FEW030CB BECMG 2018/2020 04004KT BECMG 2107/2109 23010KT

Decode

Departure Runways

ID Width Length Bearing (true/mag) Surface Threshold Overrun Markings Lighting
02 148 ft / 45 m 7,904 ft / 2,409 m 24.84° / 22.44° CONCRETE 0 ft / 0 m 161 ft / 49 m PREC-APP CENTERLINE EDGE THRESHOLD REIL-OMNI
20 148 ft / 45 m 7,904 ft / 2,409 m 204.85° / 202.45° CONCRETE 741 ft / 226 m 230 ft / 70 m PREC-APP CENTERLINE EDGE THRESHOLD REIL-OMNI

LFKF

Details ICAO LFKF (FSC)
Name Figari Sud Corse
Region France
Timezone Europe/Paris (UTC+2.0)
Stats Elevation 86 ft / 26 m (AMSL)
Location 41.502300° 9.096970°
Runways 1
Magnetic Variation 2.451° E

METAR

LFKF 201030Z AUTO 22008KT 180V250 9999 TS FEW029/// BKN039/// BKN048/// ///CB 30/22 Q1014 NOSIG

Decode

TAF

TAF AMD LFKF 201018Z 2010/2109 22010KT 9999 FEW040 SCT050 TEMPO 2010/2015 FEW035CB PROB40 TEMPO 2010/2013 3000 TSRA BR SCT030CB BKN050 BECMG 2018/2020 04005KT BECMG 2107/2109 24010KT

Decode

Destination Runways

ID Width Length Bearing (true/mag) Surface Threshold Overrun Markings Lighting
05 148 ft / 45 m 8,144 ft / 2,482 m 47.43° / 44.98° CONCRETE 0 ft / 0 m 0 ft / 0 m APP CENTERLINE EDGE THRESHOLD
23 148 ft / 45 m 8,144 ft / 2,482 m 227.45° / 225.00° CONCRETE 0 ft / 0 m 0 ft / 0 m PREC-APP CENTERLINE EDGE THRESHOLD

Approach Navaids

Runway Type Ident Frequency Range Bearing (true/mag) Slope Elevation
23 LOC-ILS GR 110.50 MHz 27 nm / 50 km 227.44° / 224.99 ° - 86 ft / 26 m (AMSL)
23 GS GR 110.50 MHz 27 nm / 50 km 227.44° / 224.99 ° 3.50° 86 ft / 26 m (AMSL)
23 DME GR 110.50 MHz 18 nm / 33 km - - 131 ft / 40 m (AMSL)
23 OM OM - - 227.43° / 224.98 ° - 87 ft / 27 m (AMSL)

Popular Alternatives